createdAt,value
2023-03-05T00:01:50.081Z,98520.84
2023-03-05T00:04:58.014Z,98517.58
2023-03-05T00:08:12.743Z,98518.52
2023-03-05T00:11:25.727Z,98517.67
2023-03-05T00:14:33.425Z,98517.67
2023-03-05T00:17:45.478Z,98516.19
2023-03-05T00:20:57.853Z,98519.55
2023-03-05T00:24:13.394Z,98512.55
2023-03-05T00:27:25.276Z,98513.47
2023-03-05T00:30:38.440Z,98514.31
2023-03-05T00:33:50.701Z,98512.55
2023-03-05T00:37:02.645Z,98508.33
2023-03-05T00:40:18.280Z,98505.34
2023-03-05T00:43:30.402Z,98501.06
2023-03-05T00:46:44.768Z,98496.58
2023-03-05T00:49:56.950Z,98500.22
2023-03-05T00:53:09.070Z,98483.02
2023-03-05T00:56:21.732Z,98490.61
2023-03-05T00:59:33.877Z,98487.14
2023-03-05T01:02:46.312Z,98489.66
2023-03-05T01:05:58.547Z,98482.08
2023-03-05T01:09:10.735Z,98487.52
2023-03-05T01:12:22.647Z,98484.42
2023-03-05T01:15:34.995Z,98482.75
2023-03-05T01:18:47.433Z,98479.08
2023-03-05T01:21:59.378Z,98480.78
2023-03-05T01:28:19.891Z,98478.70
2023-03-05T01:31:32.766Z,98483.13
2023-03-05T01:34:46.034Z,98491.14
2023-03-05T01:37:58.965Z,98495.09
2023-03-05T01:41:11.194Z,98489.11
2023-03-05T01:44:33.427Z,98491.52
2023-03-05T01:47:45.916Z,98481.33
2023-03-05T01:50:58.060Z,98478.81
2023-03-05T01:54:13.356Z,98486.88
2023-03-05T01:57:30.379Z,98483.03
2023-03-05T02:00:47.587Z,98486.60
2023-03-05T02:03:59.866Z,98482.56
2023-03-05T02:07:13.456Z,98475.93
2023-03-05T02:10:29.970Z,98478.07
2023-03-05T02:13:38.943Z,98484.35
2023-03-05T02:16:51.353Z,98476.88
2023-03-05T02:20:09.904Z,98476.77
2023-03-05T02:23:24.384Z,98482.01
2023-03-05T02:26:36.708Z,98478.17
2023-03-05T02:29:52.119Z,98476.20
2023-03-05T02:33:04.579Z,98476.95
2023-03-05T02:36:17.406Z,98474.42
2023-03-05T02:39:29.538Z,98473.78
2023-03-05T02:42:41.645Z,98472.11
2023-03-05T02:45:55.603Z,98467.80
2023-03-05T02:49:07.635Z,98465.83
2023-03-05T02:52:19.619Z,98458.73
2023-03-05T02:55:32.192Z,98450.83
2023-03-05T02:58:44.844Z,98456.80
2023-03-05T03:01:57.315Z,98453.23
2023-03-05T03:05:10.367Z,98454.36
2023-03-05T03:08:22.350Z,98445.76
2023-03-05T03:11:34.649Z,98454.36
2023-03-05T03:14:48.096Z,98447.45
2023-03-05T03:18:00.670Z,98449.33
2023-03-05T03:21:13.310Z,98445.21
2023-03-05T03:24:25.438Z,98444.27
2023-03-05T03:27:37.509Z,98453.80
2023-03-05T03:30:49.689Z,98447.63
2023-03-05T03:34:01.824Z,98446.78
2023-03-05T03:37:14.810Z,98444.91
2023-03-05T03:40:27.365Z,98442.40
2023-03-05T03:43:39.584Z,98435.30
2023-03-05T03:46:54.257Z,98434.55
2023-03-05T03:50:06.488Z,98439.61
2023-03-05T03:53:19.074Z,98425.79
2023-03-05T03:56:31.312Z,98423.45
2023-03-05T03:59:45.294Z,98420.35
2023-03-05T04:02:57.321Z,98425.10
2023-03-05T04:06:09.835Z,98422.95
2023-03-05T04:09:21.838Z,98418.09
2023-03-05T04:12:33.885Z,98413.06
2023-03-05T04:15:46.377Z,98414.92
2023-03-05T04:18:58.580Z,98415.84
2023-03-05T04:22:10.846Z,98401.28
2023-03-05T04:25:18.789Z,98406.50
2023-03-05T04:28:33.250Z,98406.60
2023-03-05T04:31:45.176Z,98403.50
2023-03-05T04:34:57.458Z,98405.00
2023-03-05T04:38:10.054Z,98393.73
2023-03-05T04:41:22.055Z,98391.02
2023-03-05T04:44:34.001Z,98387.66
2023-03-05T04:47:46.220Z,98392.98
2023-03-05T04:50:58.207Z,98387.66
2023-03-05T04:54:10.418Z,98389.33
2023-03-05T04:57:23.830Z,98388.02
2023-03-05T05:00:36.185Z,98388.02
2023-03-05T05:03:48.362Z,98396.97
2023-03-05T05:07:02.832Z,98385.77
2023-03-05T05:13:24.550Z,98376.63
2023-03-05T05:16:36.591Z,98380.16
2023-03-05T05:19:48.972Z,98380.36
2023-03-05T05:23:00.946Z,98370.17
2023-03-05T05:26:14.854Z,98365.20
2023-03-05T05:29:26.987Z,98367.27
2023-03-05T05:32:39.183Z,98367.06
2023-03-05T05:35:52.837Z,98348.75
2023-03-05T05:39:00.796Z,98363.14
2023-03-05T05:42:13.810Z,98368.47
2023-03-05T05:45:26.037Z,98360.63
2023-03-05T05:48:40.177Z,98361.25
2023-03-05T05:51:47.933Z,98358.45
2023-03-05T05:55:00.099Z,98356.52
2023-03-05T05:58:12.499Z,98374.70
2023-03-05T06:01:29.002Z,98367.62
2023-03-05T06:04:42.035Z,98375.09
2023-03-05T06:07:54.125Z,98383.59
2023-03-05T06:11:06.208Z,98386.95
2023-03-05T06:14:19.550Z,98392.17
2023-03-05T06:17:32.501Z,98399.00
2023-03-05T06:20:40.216Z,98398.90
2023-03-05T06:23:53.897Z,98402.06
2023-03-05T06:27:01.684Z,98406.28
2023-03-05T06:30:17.627Z,98402.75
2023-03-05T06:33:29.699Z,98402.75
2023-03-05T06:36:43.730Z,98386.98
2023-03-05T06:39:56.038Z,98384.47
2023-03-05T06:43:08.044Z,98382.87
2023-03-05T06:46:22.919Z,98379.60
2023-03-05T06:49:35.057Z,98367.46
2023-03-05T06:52:47.024Z,98364.84
2023-03-05T06:55:59.116Z,98376.14
2023-03-05T06:59:11.898Z,98373.80
2023-03-05T07:02:19.689Z,98375.49
2023-03-05T07:11:32.928Z,98366.55
2023-03-05T07:14:45.251Z,98373.53
2023-03-05T07:17:52.893Z,98364.32
2023-03-05T07:21:09.601Z,98331.62
2023-03-05T07:24:21.671Z,98355.61
2023-03-05T07:27:33.574Z,98363.55
2023-03-05T07:42:56.153Z,98356.84
2023-03-05T07:46:15.952Z,98346.40
2023-03-05T07:49:28.428Z,98308.96
2023-03-05T07:52:41.077Z,98340.24
2023-03-05T07:55:54.131Z,98341.64
2023-03-05T08:28:20.738Z,98290.64
2023-03-05T08:31:35.023Z,98297.36
2023-03-05T08:34:47.666Z,98301.77
2023-03-05T08:42:30.585Z,98297.13
2023-03-05T08:51:43.987Z,98288.95
2023-03-05T08:57:56.249Z,98289.66
2023-03-05T09:01:22.650Z,98290.55
2023-03-05T09:13:35.141Z,98271.24
2023-03-05T09:19:47.366Z,98275.55
2023-03-05T09:22:59.668Z,98266.33
2023-03-05T09:32:16.597Z,98256.48
2023-03-05T09:35:32.806Z,98258.16
2023-03-05T09:45:43.402Z,98246.59
2023-03-05T09:50:21.470Z,98237.11
2023-03-05T09:53:57.929Z,98237.19
2023-03-05T09:57:18.617Z,98229.44
2023-03-05T10:00:46.149Z,98232.17
2023-03-05T10:04:07.274Z,98221.03
2023-03-05T10:07:31.475Z,98218.48
2023-03-05T10:10:44.565Z,98221.19
2023-03-05T10:13:52.842Z,98215.86
2023-03-05T10:20:32.445Z,98209.86
2023-03-05T10:24:16.076Z,98209.86
2023-03-05T10:30:51.315Z,98200.95
2023-03-05T10:34:12.909Z,98196.08
2023-03-05T10:38:09.687Z,98189.17
2023-03-05T10:41:32.208Z,98180.56
2023-03-05T10:47:52.269Z,98179.53
2023-03-05T10:51:12.248Z,98178.20
2023-03-05T10:54:30.808Z,98178.18
2023-03-05T11:01:29.614Z,98173.20
2023-03-05T11:04:51.145Z,98169.36
2023-03-05T11:22:24.836Z,98158.44
2023-03-05T11:26:03.455Z,98161.54
2023-03-05T11:29:26.088Z,98165.21
2023-03-05T11:38:38.463Z,98145.02
2023-03-05T11:41:56.828Z,98160.94
2023-03-05T11:45:11.410Z,98151.84
2023-03-05T11:48:33.508Z,98147.33
2023-03-05T11:52:08.284Z,98143.75
2023-03-05T11:55:25.182Z,98152.76
2023-03-05T11:58:43.449Z,98146.37
2023-03-05T12:01:59.801Z,98149.84
2023-03-05T12:14:22.067Z,98137.92
2023-03-05T12:17:39.850Z,98145.23
2023-03-05T12:20:58.579Z,98143.03
2023-03-05T12:35:04.484Z,98136.00
2023-03-05T12:44:30.040Z,98121.77
2023-03-05T12:47:42.224Z,98114.66
2023-03-05T12:51:03.946Z,98114.64
2023-03-05T12:54:39.720Z,98104.16
2023-03-05T12:57:54.647Z,98099.55
2023-03-05T13:01:14.943Z,98100.19
2023-03-05T13:04:31.500Z,98105.81
2023-03-05T13:07:43.481Z,98111.91
2023-03-05T13:11:02.346Z,98102.81
2023-03-05T13:14:32.513Z,98103.63
2023-03-05T13:17:48.476Z,98105.44
2023-03-05T13:21:11.720Z,98103.55
2023-03-05T13:24:25.764Z,98104.90
2023-03-05T13:27:39.192Z,98117.48
2023-03-05T13:30:59.280Z,98105.55
2023-03-05T13:34:20.377Z,98109.31
2023-03-05T13:37:36.303Z,98105.23
2023-03-05T13:40:48.458Z,98100.30
2023-03-05T13:44:05.119Z,98098.84
2023-03-05T13:47:24.652Z,98103.05
2023-03-05T13:50:39.026Z,98103.34
2023-03-05T13:53:51.765Z,98082.72
2023-03-05T13:57:07.045Z,98091.84
2023-03-05T14:00:35.593Z,98079.91
2023-03-05T14:03:47.933Z,98085.84
2023-03-05T14:07:06.195Z,98079.80
2023-03-05T14:10:38.340Z,98073.66
2023-03-05T14:13:52.000Z,98069.15
2023-03-05T14:17:33.942Z,98060.07
2023-03-05T14:20:49.163Z,98053.55
2023-03-05T14:24:01.590Z,98059.22
2023-03-05T14:27:20.058Z,98051.04
2023-03-05T14:30:35.267Z,98048.22
2023-03-05T14:33:48.149Z,98055.88
2023-03-05T14:37:03.285Z,98047.25
2023-03-05T14:40:28.018Z,98051.85
2023-03-05T14:43:39.965Z,98056.28
2023-03-05T14:46:55.876Z,98037.21
2023-03-05T14:50:08.283Z,98035.84
2023-03-05T14:53:26.213Z,98037.66
2023-03-05T14:56:39.262Z,98048.13
2023-03-05T14:59:51.688Z,98056.95
2023-03-05T15:03:04.030Z,98049.02
2023-03-05T15:06:25.712Z,98053.00
2023-03-05T15:09:37.908Z,98049.21
2023-03-05T15:12:50.548Z,98049.94
2023-03-05T15:16:03.181Z,98049.63
2023-03-05T15:19:18.543Z,98042.08
2023-03-05T15:22:30.502Z,98048.05
2023-03-05T15:25:42.509Z,98038.73
2023-03-05T15:28:54.575Z,98038.01
2023-03-05T15:32:06.791Z,98043.05
2023-03-05T15:35:19.193Z,98038.62
2023-03-05T15:38:31.615Z,98037.80
2023-03-05T15:41:43.612Z,98035.19
2023-03-05T15:44:55.552Z,98041.23
2023-03-05T15:48:07.931Z,98031.60
2023-03-05T15:51:20.183Z,98028.38
2023-03-05T15:54:32.460Z,98023.45
2023-03-05T15:57:48.791Z,98026.19
2023-03-05T16:01:00.800Z,98021.68
2023-03-05T16:04:13.429Z,98025.75
2023-03-05T16:07:25.647Z,98026.80
2023-03-05T16:10:39.764Z,98021.68
2023-03-05T16:13:51.905Z,98027.88
2023-03-05T16:17:07.396Z,98024.63
2023-03-05T16:20:22.367Z,98024.53
2023-03-05T16:23:34.336Z,98027.23
2023-03-05T16:26:48.222Z,98023.80
2023-03-05T16:30:00.409Z,98026.02
2023-03-05T16:33:12.634Z,98032.09
2023-03-05T16:36:35.686Z,98026.95
2023-03-05T16:39:47.793Z,98031.98
2023-03-05T16:42:59.857Z,98031.26
2023-03-05T16:46:12.236Z,98046.23
2023-03-05T16:49:25.441Z,98034.19
2023-03-05T16:52:37.829Z,98038.58
2023-03-05T16:55:49.899Z,98033.46
2023-03-05T16:59:04.363Z,98038.81
2023-03-05T17:02:17.248Z,98038.09
2023-03-05T17:05:30.037Z,98041.55
2023-03-05T17:08:42.615Z,98044.89
2023-03-05T17:11:55.094Z,98041.75
2023-03-05T17:15:07.156Z,98040.52
2023-03-05T17:18:19.307Z,98040.41
2023-03-05T17:21:31.447Z,98041.25
2023-03-05T17:24:44.126Z,98047.30
2023-03-05T17:27:56.421Z,98045.64
2023-03-05T17:31:08.686Z,98058.00
2023-03-05T17:34:33.252Z,98050.27
2023-03-05T17:37:36.230Z,98061.89
2023-03-05T17:40:48.588Z,98069.20
2023-03-05T17:44:00.835Z,98066.09
2023-03-05T17:47:13.759Z,98074.25
2023-03-05T17:50:27.037Z,98073.00
2023-03-05T17:53:40.442Z,98066.08
2023-03-05T17:56:54.104Z,98075.50
2023-03-05T18:00:07.643Z,98078.64
2023-03-05T18:03:22.177Z,98078.20
2023-03-05T18:06:35.893Z,98079.35
2023-03-05T18:09:48.472Z,98075.90
2023-03-05T18:13:01.011Z,98082.16
2023-03-05T18:16:16.175Z,98080.91
2023-03-05T18:19:28.671Z,98079.77
2023-03-05T18:22:41.162Z,98084.03
2023-03-05T18:25:53.622Z,98090.34
2023-03-05T18:29:05.861Z,98081.34
2023-03-05T18:32:18.085Z,98082.08
2023-03-05T18:35:31.287Z,98082.27
2023-03-05T18:38:43.654Z,98082.89
2023-03-05T18:41:56.597Z,98089.81
2023-03-05T18:45:10.412Z,98085.63
2023-03-05T18:48:22.624Z,98084.88
2023-03-05T18:51:36.256Z,98085.91
2023-03-05T18:54:48.368Z,98080.61
2023-03-05T18:58:01.183Z,98081.94
2023-03-05T19:01:14.697Z,98089.05
2023-03-05T19:04:27.685Z,98077.73
2023-03-05T19:07:40.479Z,98080.69
2023-03-05T19:10:53.193Z,98076.38
2023-03-05T19:14:07.230Z,98065.08
2023-03-05T19:17:19.707Z,98072.84
2023-03-05T19:20:31.891Z,98069.56
2023-03-05T19:23:44.280Z,98073.13
2023-03-05T19:26:58.217Z,98072.50
2023-03-05T19:30:13.863Z,98072.69
2023-03-05T19:33:25.930Z,98079.61
2023-03-05T19:36:39.195Z,98062.23
2023-03-05T19:39:51.549Z,98077.29
2023-03-05T19:43:05.720Z,98075.52
2023-03-05T19:46:18.061Z,98080.93
2023-03-05T19:49:31.253Z,98079.80
2023-03-05T19:52:43.494Z,98084.20
2023-03-05T19:55:55.871Z,98087.55
2023-03-05T19:59:08.273Z,98081.48
2023-03-05T20:02:22.036Z,98078.77
2023-03-05T20:05:35.268Z,98079.39
2023-03-05T20:08:48.591Z,98079.39
2023-03-05T20:12:03.348Z,98081.72
2023-03-05T20:15:16.821Z,98080.87
2023-03-05T20:18:29.370Z,98077.92
2023-03-05T20:21:45.791Z,98080.01
2023-03-05T20:24:58.165Z,98070.40
2023-03-05T20:28:10.530Z,98059.20
2023-03-05T20:31:26.961Z,98060.19
2023-03-05T20:34:39.244Z,98057.69
2023-03-05T20:37:55.675Z,98055.25
2023-03-05T20:41:11.022Z,98061.33
2023-03-05T20:44:23.834Z,98057.05
2023-03-05T20:47:38.605Z,98059.84
2023-03-05T20:50:51.049Z,98062.22
2023-03-05T20:54:06.322Z,98060.34
2023-03-05T20:57:18.792Z,98054.38
2023-03-05T21:00:32.294Z,98055.13
2023-03-05T21:03:44.723Z,98053.36
2023-03-05T21:06:59.945Z,98056.81
2023-03-05T21:10:16.655Z,98057.28
2023-03-05T21:13:31.111Z,98052.91
2023-03-05T21:16:43.377Z,98049.09
2023-03-05T21:19:56.119Z,98052.20
2023-03-05T21:23:08.316Z,98051.31
2023-03-05T21:26:21.060Z,98047.12
2023-03-05T21:29:33.565Z,98044.13
2023-03-05T21:32:45.803Z,98044.78
2023-03-05T21:35:59.316Z,98044.15
2023-03-05T21:39:11.740Z,98038.93
2023-03-05T21:42:24.023Z,98042.74
2023-03-05T21:45:37.453Z,98037.80
2023-03-05T21:48:49.608Z,98026.44
2023-03-05T21:52:05.905Z,98026.23
2023-03-05T21:55:22.646Z,98019.35
2023-03-05T21:58:35.370Z,98021.65
2023-03-05T22:01:47.506Z,98014.38
2023-03-05T22:04:59.729Z,98016.88
2023-03-05T22:08:12.543Z,98018.47
2023-03-05T22:11:25.415Z,98009.83
2023-03-05T22:14:37.577Z,98020.66
2023-03-05T22:17:49.884Z,98013.28
2023-03-05T22:21:03.521Z,98013.46
2023-03-05T22:24:16.716Z,98013.46
2023-03-05T22:27:29.056Z,98003.23
2023-03-05T22:30:41.459Z,98003.97
2023-03-05T22:33:53.793Z,98008.24
2023-03-05T22:37:05.775Z,98000.13
2023-03-05T22:40:23.273Z,97998.89
2023-03-05T22:43:35.211Z,97995.25
2023-03-05T22:46:47.416Z,98002.91
2023-03-05T22:49:59.937Z,97993.59
2023-03-05T22:53:12.624Z,98003.94
2023-03-05T22:56:26.291Z,97994.41
2023-03-05T22:59:38.689Z,97989.92
2023-03-05T23:02:51.623Z,97996.10
2023-03-05T23:06:03.585Z,97992.14
2023-03-05T23:09:15.847Z,97988.38
2023-03-05T23:12:30.709Z,97988.05
2023-03-05T23:15:44.808Z,97988.27
2023-03-05T23:18:57.082Z,97976.13
2023-03-05T23:22:11.214Z,97977.93
2023-03-05T23:25:24.760Z,97976.92
2023-03-05T23:28:36.872Z,97984.01
2023-03-05T23:31:48.860Z,97979.88
2023-03-05T23:35:02.714Z,97987.18
2023-03-05T23:38:17.900Z,97967.72
2023-03-05T23:41:29.880Z,97972.09
2023-03-05T23:44:42.095Z,97980.27
2023-03-05T23:47:55.313Z,97974.87
2023-03-05T23:51:09.471Z,97981.01
2023-03-05T23:54:21.566Z,97974.13
2023-03-05T23:57:35.122Z,97980.09
